Sachs Harbour Airport
CYSY : rendu visible

Aérodrome :











RETROUVEZ-NOUS SUR...

 
LOGIN :

S'inscrire | Disclaimer

   EN    FR    IT 

 









Légende :    VFR   VFR Marginal   IFR   IFR Intensif   IFR Très Intensif
Visi : 
Plafond : 
>= 8 km
>= 3000ft
5 à 8 km
1000 à 3000 ft
1500m à 5 km
500 à 1000 ft
800 à 1500m
200 à 500 ft
< 800m
< 200 ft
Symboles :   Orages  Brouillard  Fortes neiges  Fortes précipitations  Vent > 20 kt






- Altitude de l'aérodrome : 282 ft
- Code IATA : YSY


CYSY - Sachs Harbour

DERNIER METAR :
  • 251800Z 00000KT 15SM FEW005 FEW210 M02/M04 A2995 RMK SF1CI2 SF TR SLP152

METARs EXPIRÉS :
  • 251700Z 16003KT 120V180 15SM FEW005 FEW210 M02/M05 A2995 RMK SF1CI2 SF TR SLP153
  • 251600Z VRB02KT 15SM FEW005 FEW210 M02/M07 A2996 RMK SF1CI1 SF TR SLP155

TAF TAF CYSY
Valide du 25 à 19h jusqu'au 25 à 23h UTC


251838Z 2519/2523 36005KT P6SM FEW005 FEW210 RMK NXT FCST WILL BE ISSUED AT 261445Z
FIR CZEG / Amérique du Nord



MET'MAP, la Météo Aéronautique d'un coup d'oeil ! - Copyright ORBIFLY Décembre 2007 - Disclaimer

ORBIFLY MET'MAP TEAM :

Programmation & Développement : Alexandra Zaïnal
Sur une idée originale de : Baudouin d'Aumeries
Assistance à la programmation : Marc-Olivier Méhu
Soutien technique & logistique : Manuel Goepfert

Contact : metmap@orbifly.com




SOURCES & CREDITS :

   NOAA       Earth
Advisory